Terminal Aerodrome Forecast
Issued by NWS Wilmington, OH

Home | Current Version | Previous Version | Text Only | Print | Product List | Glossary On
Versions: 1 2 3 4 5 6 7 8 9 10 11 12 13 14 15 16 17 18 19 20 21 22
829
FTUS41 KILN 300322 AAC
TAFCMH
TAF AMD
KCMH 300322Z 3003/3024 05008KT 5SM BR OVC006
     FM300600 12005KT P6SM VCSH BKN060
      TEMPO 3006/3009 OVC007
     FM300900 13005KT P6SM BKN060
     FM301400 19015G24KT P6SM SCT080=

USA.gov is the U.S. government's official web portal to all federal, state and local government web resources and services.